< < Back
Terminal Aerodrome Forecast


Current Version              Previous Versions:   1  2  3  4  5  6  7  8  9  

Terminal Aerodrome Forecast

741
FTUS44 KHUN 221722
TAFHSV
TAF
KHSV 221722Z 2218/2318 06008KT P6SM BKN250
     FM230200 VRB03KT P6SM FEW200
     FM231400 13010KT P6SM FEW200=

Latest METAR

204
SAUS80 KWBC 221900
MTRHSV
METAR KHSV 221853Z 36007KT 330V040 10SM CLR 24/08 A3024 RMK AO2 SLP238
T02390083


USA.gov is the U.S. government's official web portal to all federal, state and local government web resources and services.